sensor_id;sensor_type;location;lat;lon;timestamp;P1;durP1;ratioP1;P2;durP2;ratioP2
52708;SDS011;38606;52.986;6.980;2023-02-03T00:01:27;10.05;;;1.83;;
52708;SDS011;38606;52.986;6.980;2023-02-03T00:03:53;7.78;;;1.60;;
52708;SDS011;38606;52.986;6.980;2023-02-03T00:06:19;10.27;;;2.10;;
52708;SDS011;38606;52.986;6.980;2023-02-03T00:08:46;8.10;;;1.75;;
52708;SDS011;38606;52.986;6.980;2023-02-03T00:11:12;7.50;;;1.80;;
52708;SDS011;38606;52.986;6.980;2023-02-03T00:13:38;6.85;;;1.92;;
52708;SDS011;38606;52.986;6.980;2023-02-03T00:16:03;6.55;;;1.80;;
52708;SDS011;38606;52.986;6.980;2023-02-03T00:18:31;8.80;;;1.60;;
52708;SDS011;38606;52.986;6.980;2023-02-03T00:20:57;7.18;;;1.80;;
52708;SDS011;38606;52.986;6.980;2023-02-03T00:23:23;5.43;;;1.55;;
52708;SDS011;38606;52.986;6.980;2023-02-03T00:25:50;10.30;;;1.75;;
52708;SDS011;38606;52.986;6.980;2023-02-03T00:28:16;6.25;;;1.88;;
52708;SDS011;38606;52.986;6.980;2023-02-03T00:30:42;6.20;;;1.70;;
52708;SDS011;38606;52.986;6.980;2023-02-03T00:33:07;9.35;;;1.60;;
52708;SDS011;38606;52.986;6.980;2023-02-03T00:35:36;8.90;;;1.55;;
52708;SDS011;38606;52.986;6.980;2023-02-03T00:38:03;6.97;;;2.13;;
52708;SDS011;38606;52.986;6.980;2023-02-03T00:40:29;5.30;;;1.67;;
52708;SDS011;38606;52.986;6.980;2023-02-03T00:42:55;7.15;;;1.77;;
52708;SDS011;38606;52.986;6.980;2023-02-03T00:45:20;8.13;;;1.50;;
52708;SDS011;38606;52.986;6.980;2023-02-03T00:47:46;13.70;;;1.63;;
52708;SDS011;38606;52.986;6.980;2023-02-03T00:50:12;8.75;;;1.55;;
52708;SDS011;38606;52.986;6.980;2023-02-03T00:52:38;5.93;;;1.70;;
52708;SDS011;38606;52.986;6.980;2023-02-03T00:55:04;9.88;;;1.80;;
52708;SDS011;38606;52.986;6.980;2023-02-03T00:57:30;7.40;;;1.65;;
52708;SDS011;38606;52.986;6.980;2023-02-03T00:59:56;5.60;;;1.27;;
52708;SDS011;38606;52.986;6.980;2023-02-03T01:02:22;3.90;;;1.20;;
52708;SDS011;38606;52.986;6.980;2023-02-03T01:04:48;8.85;;;1.42;;
52708;SDS011;38606;52.986;6.980;2023-02-03T01:07:14;13.15;;;1.77;;
52708;SDS011;38606;52.986;6.980;2023-02-03T01:09:40;5.13;;;1.02;;
52708;SDS011;38606;52.986;6.980;2023-02-03T01:12:06;8.27;;;1.40;;
52708;SDS011;38606;52.986;6.980;2023-02-03T01:14:32;6.18;;;1.30;;
52708;SDS011;38606;52.986;6.980;2023-02-03T01:17:00;6.45;;;1.27;;
52708;SDS011;38606;52.986;6.980;2023-02-03T01:19:26;7.80;;;1.60;;
52708;SDS011;38606;52.986;6.980;2023-02-03T01:21:52;9.18;;;1.40;;
52708;SDS011;38606;52.986;6.980;2023-02-03T01:24:18;4.05;;;1.33;;
52708;SDS011;38606;52.986;6.980;2023-02-03T01:26:43;7.90;;;1.63;;
52708;SDS011;38606;52.986;6.980;2023-02-03T01:29:09;8.00;;;1.48;;
52708;SDS011;38606;52.986;6.980;2023-02-03T01:31:36;5.35;;;1.38;;
52708;SDS011;38606;52.986;6.980;2023-02-03T01:34:04;7.95;;;1.95;;
52708;SDS011;38606;52.986;6.980;2023-02-03T01:36:31;10.73;;;1.60;;
52708;SDS011;38606;52.986;6.980;2023-02-03T01:38:58;9.30;;;2.95;;
52708;SDS011;38606;52.986;6.980;2023-02-03T01:41:26;10.30;;;1.98;;
52708;SDS011;38606;52.986;6.980;2023-02-03T01:43:54;7.90;;;1.77;;
52708;SDS011;38606;52.986;6.980;2023-02-03T01:46:28;7.55;;;1.50;;
52708;SDS011;38606;52.986;6.980;2023-02-03T01:49:12;10.30;;;1.85;;
52708;SDS011;38606;52.986;6.980;2023-02-03T01:51:42;9.50;;;2.40;;
52708;SDS011;38606;52.986;6.980;2023-02-03T01:54:11;7.38;;;1.63;;
52708;SDS011;38606;52.986;6.980;2023-02-03T01:56:41;8.60;;;1.90;;
52708;SDS011;38606;52.986;6.980;2023-02-03T01:59:15;10.63;;;1.60;;
52708;SDS011;38606;52.986;6.980;2023-02-03T02:01:43;9.95;;;2.05;;
52708;SDS011;38606;52.986;6.980;2023-02-03T02:04:10;8.02;;;1.60;;
52708;SDS011;38606;52.986;6.980;2023-02-03T02:06:36;10.32;;;1.92;;
52708;SDS011;38606;52.986;6.980;2023-02-03T02:09:02;11.73;;;2.15;;
52708;SDS011;38606;52.986;6.980;2023-02-03T02:11:28;7.80;;;2.00;;
52708;SDS011;38606;52.986;6.980;2023-02-03T02:13:55;12.82;;;2.53;;
52708;SDS011;38606;52.986;6.980;2023-02-03T02:22:05;9.40;;;1.67;;
52708;SDS011;38606;52.986;6.980;2023-02-03T02:30:55;10.45;;;1.73;;
52708;SDS011;38606;52.986;6.980;2023-02-03T02:38:46;11.45;;;2.05;;
52708;SDS011;38606;52.986;6.980;2023-02-03T02:41:43;9.23;;;2.55;;
52708;SDS011;38606;52.986;6.980;2023-02-03T02:44:32;10.75;;;2.00;;
52708;SDS011;38606;52.986;6.980;2023-02-03T02:47:20;10.68;;;2.50;;
52708;SDS011;38606;52.986;6.980;2023-02-03T02:52:22;9.38;;;1.70;;
52708;SDS011;38606;52.986;6.980;2023-02-03T02:54:53;9.63;;;1.77;;
52708;SDS011;38606;52.986;6.980;2023-02-03T02:57:22;8.07;;;1.85;;
52708;SDS011;38606;52.986;6.980;2023-02-03T02:59:50;8.15;;;1.60;;
52708;SDS011;38606;52.986;6.980;2023-02-03T03:02:18;14.65;;;1.75;;
52708;SDS011;38606;52.986;6.980;2023-02-03T03:04:44;10.20;;;2.03;;
52708;SDS011;38606;52.986;6.980;2023-02-03T03:07:15;10.40;;;1.48;;
52708;SDS011;38606;52.986;6.980;2023-02-03T03:09:52;6.43;;;1.85;;
52708;SDS011;38606;52.986;6.980;2023-02-03T03:12:24;8.20;;;2.00;;
52708;SDS011;38606;52.986;6.980;2023-02-03T03:15:00;11.82;;;1.88;;
52708;SDS011;38606;52.986;6.980;2023-02-03T03:17:36;11.63;;;1.80;;
52708;SDS011;38606;52.986;6.980;2023-02-03T03:20:07;12.57;;;2.38;;
52708;SDS011;38606;52.986;6.980;2023-02-03T03:22:38;11.27;;;1.80;;
52708;SDS011;38606;52.986;6.980;2023-02-03T03:25:14;8.55;;;1.85;;
52708;SDS011;38606;52.986;6.980;2023-02-03T03:27:49;11.85;;;2.15;;
52708;SDS011;38606;52.986;6.980;2023-02-03T03:30:33;11.32;;;1.75;;
52708;SDS011;38606;52.986;6.980;2023-02-03T03:33:02;9.80;;;1.80;;
52708;SDS011;38606;52.986;6.980;2023-02-03T03:35:47;8.48;;;1.80;;
52708;SDS011;38606;52.986;6.980;2023-02-03T03:38:57;10.02;;;1.77;;
52708;SDS011;38606;52.986;6.980;2023-02-03T03:41:11;11.18;;;1.70;;
52708;SDS011;38606;52.986;6.980;2023-02-03T03:43:43;9.10;;;1.70;;
52708;SDS011;38606;52.986;6.980;2023-02-03T03:46:12;11.63;;;2.35;;
52708;SDS011;38606;52.986;6.980;2023-02-03T03:49:02;10.77;;;2.03;;
52708;SDS011;38606;52.986;6.980;2023-02-03T03:51:32;9.77;;;1.77;;
52708;SDS011;38606;52.986;6.980;2023-02-03T03:54:05;13.20;;;2.20;;
52708;SDS011;38606;52.986;6.980;2023-02-03T03:56:35;12.57;;;2.38;;
52708;SDS011;38606;52.986;6.980;2023-02-03T03:59:19;12.52;;;1.90;;
52708;SDS011;38606;52.986;6.980;2023-02-03T04:01:47;22.23;;;2.55;;
52708;SDS011;38606;52.986;6.980;2023-02-03T04:04:14;8.93;;;1.88;;
52708;SDS011;38606;52.986;6.980;2023-02-03T04:06:42;11.23;;;2.17;;
52708;SDS011;38606;52.986;6.980;2023-02-03T04:09:07;10.57;;;1.70;;
52708;SDS011;38606;52.986;6.980;2023-02-03T04:11:33;10.55;;;2.05;;
52708;SDS011;38606;52.986;6.980;2023-02-03T04:14:25;10.68;;;1.63;;
52708;SDS011;38606;52.986;6.980;2023-02-03T04:16:51;8.93;;;2.05;;
52708;SDS011;38606;52.986;6.980;2023-02-03T04:19:17;13.30;;;2.13;;
52708;SDS011;38606;52.986;6.980;2023-02-03T04:21:43;8.90;;;1.73;;
52708;SDS011;38606;52.986;6.980;2023-02-03T04:24:08;13.32;;;2.33;;
52708;SDS011;38606;52.986;6.980;2023-02-03T04:26:35;11.20;;;2.00;;
52708;SDS011;38606;52.986;6.980;2023-02-03T04:29:02;12.23;;;1.80;;
52708;SDS011;38606;52.986;6.980;2023-02-03T04:31:27;9.50;;;2.10;;
52708;SDS011;38606;52.986;6.980;2023-02-03T04:33:53;9.75;;;2.20;;
52708;SDS011;38606;52.986;6.980;2023-02-03T04:36:19;15.77;;;1.90;;
52708;SDS011;38606;52.986;6.980;2023-02-03T04:38:45;15.63;;;2.22;;
52708;SDS011;38606;52.986;6.980;2023-02-03T04:41:12;12.02;;;1.90;;
52708;SDS011;38606;52.986;6.980;2023-02-03T04:43:37;12.43;;;1.80;;
52708;SDS011;38606;52.986;6.980;2023-02-03T04:46:03;7.75;;;1.70;;
52708;SDS011;38606;52.986;6.980;2023-02-03T04:48:29;9.00;;;1.90;;
52708;SDS011;38606;52.986;6.980;2023-02-03T04:50:54;10.20;;;1.67;;
52708;SDS011;38606;52.986;6.980;2023-02-03T04:53:26;12.25;;;1.85;;
52708;SDS011;38606;52.986;6.980;2023-02-03T04:55:51;11.57;;;1.80;;
52708;SDS011;38606;52.986;6.980;2023-02-03T04:58:17;17.27;;;2.13;;
52708;SDS011;38606;52.986;6.980;2023-02-03T05:00:43;10.45;;;1.80;;
52708;SDS011;38606;52.986;6.980;2023-02-03T05:03:08;11.25;;;2.20;;
52708;SDS011;38606;52.986;6.980;2023-02-03T05:05:34;10.07;;;1.77;;
52708;SDS011;38606;52.986;6.980;2023-02-03T05:08:00;10.50;;;1.73;;
52708;SDS011;38606;52.986;6.980;2023-02-03T05:10:25;10.40;;;1.75;;
52708;SDS011;38606;52.986;6.980;2023-02-03T05:12:51;10.63;;;1.77;;
52708;SDS011;38606;52.986;6.980;2023-02-03T05:15:17;15.68;;;1.90;;
52708;SDS011;38606;52.986;6.980;2023-02-03T05:17:42;14.07;;;2.30;;
52708;SDS011;38606;52.986;6.980;2023-02-03T05:20:08;16.88;;;2.47;;
52708;SDS011;38606;52.986;6.980;2023-02-03T05:22:34;12.05;;;1.85;;
52708;SDS011;38606;52.986;6.980;2023-02-03T05:25:01;13.55;;;2.05;;
52708;SDS011;38606;52.986;6.980;2023-02-03T05:27:27;17.20;;;2.45;;
52708;SDS011;38606;52.986;6.980;2023-02-03T05:29:53;11.15;;;1.88;;
52708;SDS011;38606;52.986;6.980;2023-02-03T05:32:18;11.77;;;2.00;;
52708;SDS011;38606;52.986;6.980;2023-02-03T05:34:44;10.18;;;1.77;;
52708;SDS011;38606;52.986;6.980;2023-02-03T05:37:10;11.30;;;1.80;;
52708;SDS011;38606;52.986;6.980;2023-02-03T05:39:36;10.95;;;1.80;;
52708;SDS011;38606;52.986;6.980;2023-02-03T05:42:01;13.82;;;2.53;;
52708;SDS011;38606;52.986;6.980;2023-02-03T05:44:28;11.48;;;1.92;;
52708;SDS011;38606;52.986;6.980;2023-02-03T05:46:55;11.48;;;2.15;;
52708;SDS011;38606;52.986;6.980;2023-02-03T05:49:22;8.95;;;2.05;;
52708;SDS011;38606;52.986;6.980;2023-02-03T05:51:48;9.63;;;2.50;;
52708;SDS011;38606;52.986;6.980;2023-02-03T05:54:15;20.95;;;2.95;;
52708;SDS011;38606;52.986;6.980;2023-02-03T05:56:41;7.65;;;2.08;;
52708;SDS011;38606;52.986;6.980;2023-02-03T05:59:07;13.82;;;2.85;;
52708;SDS011;38606;52.986;6.980;2023-02-03T06:01:33;14.32;;;2.35;;
52708;SDS011;38606;52.986;6.980;2023-02-03T06:03:59;14.90;;;2.47;;
52708;SDS011;38606;52.986;6.980;2023-02-03T06:06:25;7.97;;;2.08;;
52708;SDS011;38606;52.986;6.980;2023-02-03T06:09:01;12.30;;;2.00;;
52708;SDS011;38606;52.986;6.980;2023-02-03T06:11:31;12.38;;;2.58;;
52708;SDS011;38606;52.986;6.980;2023-02-03T06:13:58;13.15;;;2.60;;
52708;SDS011;38606;52.986;6.980;2023-02-03T06:16:25;6.80;;;2.00;;
52708;SDS011;38606;52.986;6.980;2023-02-03T06:18:51;12.30;;;2.47;;
52708;SDS011;38606;52.986;6.980;2023-02-03T06:21:18;9.85;;;2.13;;
52708;SDS011;38606;52.986;6.980;2023-02-03T06:23:44;14.23;;;3.08;;
52708;SDS011;38606;52.986;6.980;2023-02-03T06:26:10;11.18;;;2.33;;
52708;SDS011;38606;52.986;6.980;2023-02-03T06:28:36;12.68;;;2.40;;
52708;SDS011;38606;52.986;6.980;2023-02-03T06:31:02;14.90;;;2.70;;
52708;SDS011;38606;52.986;6.980;2023-02-03T06:33:29;13.95;;;2.60;;
52708;SDS011;38606;52.986;6.980;2023-02-03T06:35:55;12.43;;;2.50;;
52708;SDS011;38606;52.986;6.980;2023-02-03T06:38:20;14.85;;;2.65;;
52708;SDS011;38606;52.986;6.980;2023-02-03T06:40:46;15.23;;;2.47;;
52708;SDS011;38606;52.986;6.980;2023-02-03T06:43:12;15.30;;;2.50;;
52708;SDS011;38606;52.986;6.980;2023-02-03T06:45:38;9.23;;;2.20;;
52708;SDS011;38606;52.986;6.980;2023-02-03T06:48:04;13.68;;;2.70;;
52708;SDS011;38606;52.986;6.980;2023-02-03T06:50:30;17.23;;;2.80;;
52708;SDS011;38606;52.986;6.980;2023-02-03T06:52:56;13.30;;;3.00;;
52708;SDS011;38606;52.986;6.980;2023-02-03T06:55:21;13.23;;;3.00;;
52708;SDS011;38606;52.986;6.980;2023-02-03T06:57:47;15.23;;;2.97;;
52708;SDS011;38606;52.986;6.980;2023-02-03T07:00:14;18.58;;;2.45;;
52708;SDS011;38606;52.986;6.980;2023-02-03T07:02:42;18.33;;;3.03;;
52708;SDS011;38606;52.986;6.980;2023-02-03T07:05:08;13.48;;;2.50;;
52708;SDS011;38606;52.986;6.980;2023-02-03T07:07:34;16.63;;;3.05;;
52708;SDS011;38606;52.986;6.980;2023-02-03T07:10:00;15.00;;;2.58;;
52708;SDS011;38606;52.986;6.980;2023-02-03T07:12:26;18.05;;;3.00;;
52708;SDS011;38606;52.986;6.980;2023-02-03T07:14:52;16.92;;;2.97;;
52708;SDS011;38606;52.986;6.980;2023-02-03T07:17:18;14.93;;;3.00;;
52708;SDS011;38606;52.986;6.980;2023-02-03T07:19:44;15.00;;;2.55;;
52708;SDS011;38606;52.986;6.980;2023-02-03T07:22:10;11.65;;;2.60;;
52708;SDS011;38606;52.986;6.980;2023-02-03T07:24:36;13.65;;;2.85;;
52708;SDS011;38606;52.986;6.980;2023-02-03T07:27:01;14.18;;;2.58;;
52708;SDS011;38606;52.986;6.980;2023-02-03T07:29:27;17.48;;;3.05;;
52708;SDS011;38606;52.986;6.980;2023-02-03T07:31:53;14.75;;;2.97;;
52708;SDS011;38606;52.986;6.980;2023-02-03T07:34:18;15.40;;;2.70;;
52708;SDS011;38606;52.986;6.980;2023-02-03T07:36:44;18.27;;;3.15;;
52708;SDS011;38606;52.986;6.980;2023-02-03T07:39:10;18.52;;;3.47;;
52708;SDS011;38606;52.986;6.980;2023-02-03T07:41:36;19.02;;;2.70;;
52708;SDS011;38606;52.986;6.980;2023-02-03T07:44:01;20.83;;;3.40;;
52708;SDS011;38606;52.986;6.980;2023-02-03T07:46:27;13.90;;;2.50;;
52708;SDS011;38606;52.986;6.980;2023-02-03T07:48:53;20.42;;;3.20;;
52708;SDS011;38606;52.986;6.980;2023-02-03T07:51:19;17.75;;;2.97;;
52708;SDS011;38606;52.986;6.980;2023-02-03T07:53:45;24.20;;;4.13;;
52708;SDS011;38606;52.986;6.980;2023-02-03T07:56:10;20.80;;;3.15;;
52708;SDS011;38606;52.986;6.980;2023-02-03T07:58:37;15.45;;;2.92;;
52708;SDS011;38606;52.986;6.980;2023-02-03T08:01:08;21.67;;;3.42;;
52708;SDS011;38606;52.986;6.980;2023-02-03T08:03:36;21.08;;;3.78;;
52708;SDS011;38606;52.986;6.980;2023-02-03T08:06:02;25.73;;;5.07;;
52708;SDS011;38606;52.986;6.980;2023-02-03T08:08:28;17.13;;;3.42;;
52708;SDS011;38606;52.986;6.980;2023-02-03T08:10:54;19.88;;;3.50;;
52708;SDS011;38606;52.986;6.980;2023-02-03T08:13:20;17.33;;;3.80;;
52708;SDS011;38606;52.986;6.980;2023-02-03T08:15:46;16.92;;;3.33;;
52708;SDS011;38606;52.986;6.980;2023-02-03T08:18:12;22.33;;;3.88;;
52708;SDS011;38606;52.986;6.980;2023-02-03T08:20:38;20.40;;;3.25;;
52708;SDS011;38606;52.986;6.980;2023-02-03T08:23:04;17.40;;;4.20;;
52708;SDS011;38606;52.986;6.980;2023-02-03T08:25:30;18.15;;;3.75;;
52708;SDS011;38606;52.986;6.980;2023-02-03T08:27:56;16.65;;;3.70;;
52708;SDS011;38606;52.986;6.980;2023-02-03T08:30:22;15.20;;;3.35;;
52708;SDS011;38606;52.986;6.980;2023-02-03T08:32:48;21.88;;;3.70;;
52708;SDS011;38606;52.986;6.980;2023-02-03T08:35:14;17.75;;;3.40;;
52708;SDS011;38606;52.986;6.980;2023-02-03T08:37:40;25.40;;;4.47;;
52708;SDS011;38606;52.986;6.980;2023-02-03T08:40:06;21.95;;;3.78;;
52708;SDS011;38606;52.986;6.980;2023-02-03T08:42:33;19.63;;;3.20;;
52708;SDS011;38606;52.986;6.980;2023-02-03T08:44:58;21.48;;;3.88;;
52708;SDS011;38606;52.986;6.980;2023-02-03T08:47:24;17.45;;;3.50;;
52708;SDS011;38606;52.986;6.980;2023-02-03T08:49:50;17.35;;;2.72;;
52708;SDS011;38606;52.986;6.980;2023-02-03T08:52:16;14.60;;;3.08;;
52708;SDS011;38606;52.986;6.980;2023-02-03T08:54:42;25.25;;;3.38;;
52708;SDS011;38606;52.986;6.980;2023-02-03T08:57:08;20.88;;;3.60;;
52708;SDS011;38606;52.986;6.980;2023-02-03T08:59:34;18.95;;;3.08;;
52708;SDS011;38606;52.986;6.980;2023-02-03T09:02:02;22.08;;;3.78;;
52708;SDS011;38606;52.986;6.980;2023-02-03T09:04:29;21.23;;;3.10;;
52708;SDS011;38606;52.986;6.980;2023-02-03T09:06:57;26.63;;;3.95;;
52708;SDS011;38606;52.986;6.980;2023-02-03T09:09:23;23.98;;;4.22;;
52708;SDS011;38606;52.986;6.980;2023-02-03T09:11:50;19.63;;;3.40;;
52708;SDS011;38606;52.986;6.980;2023-02-03T09:14:17;28.00;;;4.70;;
52708;SDS011;38606;52.986;6.980;2023-02-03T09:16:43;26.60;;;3.65;;
52708;SDS011;38606;52.986;6.980;2023-02-03T09:19:08;24.42;;;3.95;;
52708;SDS011;38606;52.986;6.980;2023-02-03T09:21:34;36.38;;;4.20;;
52708;SDS011;38606;52.986;6.980;2023-02-03T09:24:00;24.05;;;3.97;;
52708;SDS011;38606;52.986;6.980;2023-02-03T09:26:27;25.98;;;3.78;;
52708;SDS011;38606;52.986;6.980;2023-02-03T09:28:52;32.17;;;4.88;;
52708;SDS011;38606;52.986;6.980;2023-02-03T09:31:18;31.38;;;3.80;;
52708;SDS011;38606;52.986;6.980;2023-02-03T09:33:44;22.17;;;3.90;;
52708;SDS011;38606;52.986;6.980;2023-02-03T09:36:11;33.15;;;4.55;;
52708;SDS011;38606;52.986;6.980;2023-02-03T09:38:38;26.52;;;4.32;;
52708;SDS011;38606;52.986;6.980;2023-02-03T09:44:03;29.90;;;4.07;;
52708;SDS011;38606;52.986;6.980;2023-02-03T09:46:37;31.27;;;3.90;;
52708;SDS011;38606;52.986;6.980;2023-02-03T09:51:43;19.80;;;4.20;;
52708;SDS011;38606;52.986;6.980;2023-02-03T09:56:48;30.45;;;3.90;;
52708;SDS011;38606;52.986;6.980;2023-02-03T09:59:19;29.20;;;4.93;;
52708;SDS011;38606;52.986;6.980;2023-02-03T10:02:12;33.50;;;5.22;;
52708;SDS011;38606;52.986;6.980;2023-02-03T10:07:37;19.35;;;3.65;;
52708;SDS011;38606;52.986;6.980;2023-02-03T10:13:06;28.23;;;4.80;;
52708;SDS011;38606;52.986;6.980;2023-02-03T10:18:22;29.83;;;4.00;;
52708;SDS011;38606;52.986;6.980;2023-02-03T10:23:30;34.20;;;4.80;;
52708;SDS011;38606;52.986;6.980;2023-02-03T10:26:00;28.92;;;4.45;;
52708;SDS011;38606;52.986;6.980;2023-02-03T10:28:43;34.20;;;5.25;;
52708;SDS011;38606;52.986;6.980;2023-02-03T10:31:19;30.42;;;4.55;;
52708;SDS011;38606;52.986;6.980;2023-02-03T10:33:54;33.05;;;4.40;;
52708;SDS011;38606;52.986;6.980;2023-02-03T10:36:39;32.85;;;4.13;;
52708;SDS011;38606;52.986;6.980;2023-02-03T10:42:05;32.00;;;5.18;;
52708;SDS011;38606;52.986;6.980;2023-02-03T10:44:40;37.38;;;4.90;;
52708;SDS011;38606;52.986;6.980;2023-02-03T10:47:41;31.70;;;4.78;;
52708;SDS011;38606;52.986;6.980;2023-02-03T10:50:06;38.65;;;5.75;;
52708;SDS011;38606;52.986;6.980;2023-02-03T10:52:41;32.35;;;4.43;;
52708;SDS011;38606;52.986;6.980;2023-02-03T10:57:51;32.95;;;4.88;;
52708;SDS011;38606;52.986;6.980;2023-02-03T11:02:54;33.97;;;4.70;;
52708;SDS011;38606;52.986;6.980;2023-02-03T11:05:31;35.30;;;4.68;;
52708;SDS011;38606;52.986;6.980;2023-02-03T11:07:58;34.53;;;5.35;;
52708;SDS011;38606;52.986;6.980;2023-02-03T11:10:28;36.92;;;5.30;;
52708;SDS011;38606;52.986;6.980;2023-02-03T11:21:27;36.75;;;5.78;;
52708;SDS011;38606;52.986;6.980;2023-02-03T11:26:32;35.78;;;4.95;;
52708;SDS011;38606;52.986;6.980;2023-02-03T11:29:05;35.08;;;5.45;;
52708;SDS011;38606;52.986;6.980;2023-02-03T11:31:39;42.78;;;6.95;;
52708;SDS011;38606;52.986;6.980;2023-02-03T11:34:15;37.95;;;6.05;;
52708;SDS011;38606;52.986;6.980;2023-02-03T11:36:48;34.30;;;5.60;;
52708;SDS011;38606;52.986;6.980;2023-02-03T11:39:24;44.15;;;5.75;;
52708;SDS011;38606;52.986;6.980;2023-02-03T11:41:52;38.05;;;5.97;;
52708;SDS011;38606;52.986;6.980;2023-02-03T11:44:26;29.35;;;4.93;;
52708;SDS011;38606;52.986;6.980;2023-02-03T11:57:43;37.42;;;5.85;;
52708;SDS011;38606;52.986;6.980;2023-02-03T12:00:29;33.28;;;5.32;;
52708;SDS011;38606;52.986;6.980;2023-02-03T12:06:05;38.85;;;5.32;;
52708;SDS011;38606;52.986;6.980;2023-02-03T12:19:35;31.60;;;5.10;;
52708;SDS011;38606;52.986;6.980;2023-02-03T12:25:34;32.53;;;4.53;;
52708;SDS011;38606;52.986;6.980;2023-02-03T12:31:49;45.63;;;6.45;;
52708;SDS011;38606;52.986;6.980;2023-02-03T12:36:45;29.98;;;4.88;;
52708;SDS011;38606;52.986;6.980;2023-02-03T12:47:31;36.28;;;4.65;;
52708;SDS011;38606;52.986;6.980;2023-02-03T12:50:26;29.55;;;4.95;;
52708;SDS011;38606;52.986;6.980;2023-02-03T12:55:36;29.13;;;4.63;;
52708;SDS011;38606;52.986;6.980;2023-02-03T12:58:25;26.33;;;4.68;;
52708;SDS011;38606;52.986;6.980;2023-02-03T13:01:01;26.77;;;3.53;;
52708;SDS011;38606;52.986;6.980;2023-02-03T13:03:40;32.88;;;4.45;;
52708;SDS011;38606;52.986;6.980;2023-02-03T13:13:48;36.40;;;5.70;;
52708;SDS011;38606;52.986;6.980;2023-02-03T13:16:20;27.55;;;3.50;;
52708;SDS011;38606;52.986;6.980;2023-02-03T13:18:55;28.25;;;3.80;;
52708;SDS011;38606;52.986;6.980;2023-02-03T13:21:26;24.10;;;3.83;;
52708;SDS011;38606;52.986;6.980;2023-02-03T13:23:52;31.38;;;4.85;;
52708;SDS011;38606;52.986;6.980;2023-02-03T13:31:45;29.35;;;4.18;;
52708;SDS011;38606;52.986;6.980;2023-02-03T13:37:11;32.15;;;5.00;;
52708;SDS011;38606;52.986;6.980;2023-02-03T13:40:13;26.63;;;4.03;;
52708;SDS011;38606;52.986;6.980;2023-02-03T13:42:51;31.30;;;4.43;;
52708;SDS011;38606;52.986;6.980;2023-02-03T13:45:39;30.52;;;5.82;;
52708;SDS011;38606;52.986;6.980;2023-02-03T13:48:08;43.13;;;5.75;;
52708;SDS011;38606;52.986;6.980;2023-02-03T13:50:40;35.53;;;4.95;;
52708;SDS011;38606;52.986;6.980;2023-02-03T13:53:27;35.72;;;4.63;;
52708;SDS011;38606;52.986;6.980;2023-02-03T13:55:54;36.85;;;5.25;;
52708;SDS011;38606;52.986;6.980;2023-02-03T13:58:22;35.63;;;6.40;;
52708;SDS011;38606;52.986;6.980;2023-02-03T14:05:49;43.60;;;5.90;;
52708;SDS011;38606;52.986;6.980;2023-02-03T14:16:34;32.03;;;4.78;;
52708;SDS011;38606;52.986;6.980;2023-02-03T14:19:11;40.97;;;5.43;;
52708;SDS011;38606;52.986;6.980;2023-02-03T14:22:01;42.28;;;5.88;;
52708;SDS011;38606;52.986;6.980;2023-02-03T14:24:41;25.80;;;4.72;;
52708;SDS011;38606;52.986;6.980;2023-02-03T14:27:31;38.67;;;5.32;;
52708;SDS011;38606;52.986;6.980;2023-02-03T14:35:37;34.85;;;5.38;;
52708;SDS011;38606;52.986;6.980;2023-02-03T14:38:12;23.45;;;4.45;;
52708;SDS011;38606;52.986;6.980;2023-02-03T14:57:04;35.22;;;4.43;;
52708;SDS011;38606;52.986;6.980;2023-02-03T15:02:39;36.00;;;4.35;;
52708;SDS011;38606;52.986;6.980;2023-02-03T15:17:09;27.77;;;3.60;;
52708;SDS011;38606;52.986;6.980;2023-02-03T15:19:41;31.25;;;3.70;;
52708;SDS011;38606;52.986;6.980;2023-02-03T15:22:20;30.73;;;4.72;;
52708;SDS011;38606;52.986;6.980;2023-02-03T15:24:47;24.27;;;3.60;;
52708;SDS011;38606;52.986;6.980;2023-02-03T15:27:25;26.67;;;3.78;;
52708;SDS011;38606;52.986;6.980;2023-02-03T15:29:52;25.88;;;3.85;;
52708;SDS011;38606;52.986;6.980;2023-02-03T15:34:57;28.65;;;3.72;;
52708;SDS011;38606;52.986;6.980;2023-02-03T15:40:02;21.63;;;4.20;;
52708;SDS011;38606;52.986;6.980;2023-02-03T15:48:39;28.25;;;4.20;;
52708;SDS011;38606;52.986;6.980;2023-02-03T15:54:10;28.48;;;3.90;;
52708;SDS011;38606;52.986;6.980;2023-02-03T15:59:20;32.17;;;3.88;;
52708;SDS011;38606;52.986;6.980;2023-02-03T16:02:21;30.30;;;3.95;;
52708;SDS011;38606;52.986;6.980;2023-02-03T16:05:01;28.80;;;4.75;;
52708;SDS011;38606;52.986;6.980;2023-02-03T16:07:43;31.95;;;4.47;;
52708;SDS011;38606;52.986;6.980;2023-02-03T16:10:28;28.67;;;3.63;;
52708;SDS011;38606;52.986;6.980;2023-02-03T16:18:33;25.52;;;3.75;;
52708;SDS011;38606;52.986;6.980;2023-02-03T16:21:03;31.55;;;4.78;;
52708;SDS011;38606;52.986;6.980;2023-02-03T16:23:29;31.65;;;4.45;;
52708;SDS011;38606;52.986;6.980;2023-02-03T16:28:36;33.47;;;4.28;;
52708;SDS011;38606;52.986;6.980;2023-02-03T16:31:24;31.60;;;4.43;;
52708;SDS011;38606;52.986;6.980;2023-02-03T16:34:18;22.48;;;3.72;;
52708;SDS011;38606;52.986;6.980;2023-02-03T16:37:12;28.98;;;4.57;;
52708;SDS011;38606;52.986;6.980;2023-02-03T16:40:05;31.95;;;4.40;;
52708;SDS011;38606;52.986;6.980;2023-02-03T16:42:50;23.00;;;3.58;;
52708;SDS011;38606;52.986;6.980;2023-02-03T16:45:34;26.17;;;3.75;;
52708;SDS011;38606;52.986;6.980;2023-02-03T16:48:19;32.50;;;4.50;;
52708;SDS011;38606;52.986;6.980;2023-02-03T16:51:04;39.83;;;6.63;;
52708;SDS011;38606;52.986;6.980;2023-02-03T16:53:35;29.10;;;3.65;;
52708;SDS011;38606;52.986;6.980;2023-02-03T16:56:02;42.22;;;4.97;;
52708;SDS011;38606;52.986;6.980;2023-02-03T16:58:29;29.25;;;4.43;;
52708;SDS011;38606;52.986;6.980;2023-02-03T17:00:56;38.13;;;5.15;;
52708;SDS011;38606;52.986;6.980;2023-02-03T17:03:24;41.70;;;5.28;;
52708;SDS011;38606;52.986;6.980;2023-02-03T17:05:52;36.92;;;4.60;;
52708;SDS011;38606;52.986;6.980;2023-02-03T17:08:20;42.42;;;4.63;;
52708;SDS011;38606;52.986;6.980;2023-02-03T17:10:47;31.83;;;4.10;;
52708;SDS011;38606;52.986;6.980;2023-02-03T17:13:14;28.00;;;4.18;;
52708;SDS011;38606;52.986;6.980;2023-02-03T17:15:42;40.22;;;4.82;;
52708;SDS011;38606;52.986;6.980;2023-02-03T17:18:09;29.33;;;4.57;;
52708;SDS011;38606;52.986;6.980;2023-02-03T17:20:35;34.22;;;4.65;;
52708;SDS011;38606;52.986;6.980;2023-02-03T17:23:01;33.53;;;5.07;;
52708;SDS011;38606;52.986;6.980;2023-02-03T17:25:27;32.67;;;4.70;;
52708;SDS011;38606;52.986;6.980;2023-02-03T17:27:53;34.00;;;4.05;;
52708;SDS011;38606;52.986;6.980;2023-02-03T17:30:19;39.80;;;4.53;;
52708;SDS011;38606;52.986;6.980;2023-02-03T17:32:45;31.60;;;4.45;;
52708;SDS011;38606;52.986;6.980;2023-02-03T17:35:11;30.92;;;4.25;;
52708;SDS011;38606;52.986;6.980;2023-02-03T17:37:36;27.95;;;3.90;;
52708;SDS011;38606;52.986;6.980;2023-02-03T17:40:03;25.98;;;3.53;;
52708;SDS011;38606;52.986;6.980;2023-02-03T17:42:29;21.50;;;4.20;;
52708;SDS011;38606;52.986;6.980;2023-02-03T17:44:54;32.30;;;4.28;;
52708;SDS011;38606;52.986;6.980;2023-02-03T17:47:20;35.13;;;4.28;;
52708;SDS011;38606;52.986;6.980;2023-02-03T17:49:46;39.83;;;4.70;;
52708;SDS011;38606;52.986;6.980;2023-02-03T17:52:12;25.20;;;3.50;;
52708;SDS011;38606;52.986;6.980;2023-02-03T17:54:39;33.05;;;4.00;;
52708;SDS011;38606;52.986;6.980;2023-02-03T17:57:05;29.17;;;3.97;;
52708;SDS011;38606;52.986;6.980;2023-02-03T17:59:31;31.42;;;4.07;;
52708;SDS011;38606;52.986;6.980;2023-02-03T18:01:59;30.20;;;4.32;;
52708;SDS011;38606;52.986;6.980;2023-02-03T18:04:25;29.73;;;4.35;;
52708;SDS011;38606;52.986;6.980;2023-02-03T18:06:50;33.45;;;4.13;;
52708;SDS011;38606;52.986;6.980;2023-02-03T18:09:18;30.42;;;4.38;;